Time;durP1;ratioP1;P1;durP2;ratioP2;P2;SDS_P1;SDS_P2;PMS_P1;PMS_P2;Temp;Humidity;BMP_temperature;BMP_pressure;BME280_temperature;BME280_humidity;BME280_pressure;Samples;Min_cycle;Max_cycle;Signal;HPM_P1;HPM_P2
2021/09/28 00:00:52;;;;;;;;;;;;;;;10.79;97.77;102049.09;5052522;28;19933;-41
2021/09/28 00:03:19;;;;;;;;;;;;;;;10.78;98.23;102050.88;5054059;28;19925;-43
2021/09/28 00:05:47;;;;;;;;;;;;;;;10.83;96.98;102053.28;5052822;28;19943;-41
2021/09/28 00:08:14;;;;;;;;;;;;;;;10.84;96.96;102052.38;5068224;28;19925;-41
2021/09/28 00:10:41;;;;;;;;;;;;;;;10.79;97.30;102049.94;5053583;28;19925;-41
2021/09/28 00:13:08;;;;;;;;;;;;;;;10.89;97.09;102058.25;5051024;28;19987;-41
2021/09/28 00:15:35;;;;;;;;;;;;;;;10.85;97.25;102056.69;5050633;28;19925;-44
2021/09/28 00:18:01;;;;;;;;;;;;;;;10.85;96.15;102058.47;5052318;28;19994;-42
2021/09/28 00:20:29;;;;;;;;;;;;;;;10.81;96.44;102055.13;5052170;28;20350;-41
2021/09/28 00:22:56;;;;;;;;;;;;;;;10.77;96.73;102061.47;5051410;28;19932;-42
2021/09/28 00:25:23;;;;;;;;;;;;;;;10.78;96.57;102071.06;5052356;28;20509;-41
2021/09/28 00:27:49;;;;;;;;;;;;;;;10.71;96.21;102072.28;5049949;28;20410;-41
2021/09/28 00:30:16;;;;;;;;;;;;;;;10.76;96.34;102071.16;5050390;28;19960;-41
2021/09/28 00:32:43;;;;;;;;;;;;;;;10.72;96.25;102068.75;5051735;28;19933;-42
2021/09/28 00:35:09;;;;;;;;;;;;;;;10.67;96.50;102068.09;5051107;28;19968;-41
2021/09/28 00:37:36;;;;;;;;;;;;;;;10.69;96.37;102079.38;5051684;28;19975;-43
2021/09/28 00:40:03;;;;;;;;;;;;;;;10.72;96.43;102080.09;5067575;28;20023;-42
2021/09/28 00:42:30;;;;;;;;;;;;;;;10.71;96.43;102075.75;5053168;28;20440;-40
2021/09/28 00:44:56;;;;;;;;;;;;;;;10.64;95.86;102075.19;5066945;28;19929;-41
2021/09/28 00:47:23;;;;;;;;;;;;;;;10.58;96.37;102083.38;5052220;28;20340;-40
2021/09/28 00:49:50;;;;;;;;;;;;;;;10.55;96.23;102090.53;5052204;28;19932;-41
2021/09/28 00:52:17;;;;;;;;;;;;;;;10.53;96.79;102082.72;5065691;28;19929;-42
2021/09/28 00:54:45;;;;;;;;;;;;;;;10.57;95.62;102096.59;5051056;28;19991;-42
2021/09/28 00:57:11;;;;;;;;;;;;;;;10.53;96.32;102087.97;5064501;28;19974;-49
2021/09/28 00:59:38;;;;;;;;;;;;;;;10.58;95.86;102091.25;5049455;28;19929;-53
2021/09/28 01:02:06;;;;;;;;;;;;;;;10.57;95.19;102094.81;5051561;28;20403;-53
2021/09/28 01:04:32;;;;;;;;;;;;;;;10.47;96.50;102083.84;5050535;28;20275;-50
2021/09/28 01:06:59;;;;;;;;;;;;;;;10.46;95.64;102097.06;5051066;28;19956;-52
2021/09/28 01:09:26;;;;;;;;;;;;;;;10.45;95.72;102084.84;5051865;28;19971;-53
2021/09/28 01:11:53;;;;;;;;;;;;;;;10.41;96.61;102094.63;5049594;28;19925;-52
2021/09/28 01:14:20;;;;;;;;;;;;;;;10.40;96.60;102089.44;5065899;28;20388;-43
2021/09/28 01:16:46;;;;;;;;;;;;;;;10.34;96.34;102097.59;5050301;28;20388;-44
2021/09/28 01:19:13;;;;;;;;;;;;;;;10.31;96.26;102101.22;5051025;28;19929;-41
2021/09/28 01:21:40;;;;;;;;;;;;;;;10.35;97.16;102108.06;5050419;28;19925;-42
2021/09/28 01:24:07;;;;;;;;;;;;;;;10.29;96.61;102098.66;5051263;28;19924;-42
2021/09/28 01:26:33;;;;;;;;;;;;;;;10.29;97.18;102100.41;5068783;28;19932;-42
2021/09/28 01:29:01;;;;;;;;;;;;;;;10.35;97.19;102099.31;5053456;28;19925;-41
2021/09/28 01:31:27;;;;;;;;;;;;;;;10.36;96.66;102099.28;5053473;28;20430;-43
2021/09/28 01:33:54;;;;;;;;;;;;;;;10.31;96.25;102094.16;5068440;28;19925;-44
2021/09/28 01:36:21;;;;;;;;;;;;;;;10.35;96.26;102094.94;5053441;28;19970;-43
2021/09/28 01:38:47;;;;;;;;;;;;;;;10.34;95.86;102098.44;5068335;28;20287;-40
2021/09/28 01:41:14;;;;;;;;;;;;;;;10.21;96.04;102095.50;5053242;28;19979;-41
2021/09/28 01:43:40;;;;;;;;;;;;;;;10.24;96.10;102095.38;5053142;28;19925;-41
2021/09/28 01:46:07;;;;;;;;;;;;;;;10.21;96.20;102097.25;5053042;28;19955;-42
2021/09/28 01:48:35;;;;;;;;;;;;;;;10.20;96.60;102099.06;5051067;28;19929;-43
2021/09/28 01:51:01;;;;;;;;;;;;;;;10.25;96.11;102106.72;5066060;28;19952;-51
2021/09/28 01:53:28;;;;;;;;;;;;;;;10.24;96.25;102098.00;5050332;28;19951;-50
2021/09/28 01:55:55;;;;;;;;;;;;;;;10.17;96.52;102104.44;5049899;28;20342;-48
2021/09/28 01:58:21;;;;;;;;;;;;;;;10.09;96.80;102103.91;5048535;28;19924;-49
2021/09/28 02:00:48;;;;;;;;;;;;;;;10.06;96.70;102106.66;5049903;28;19936;-49
2021/09/28 02:03:15;;;;;;;;;;;;;;;10.06;96.75;102102.28;5066379;28;19924;-50
2021/09/28 02:05:42;;;;;;;;;;;;;;;10.08;96.85;102104.84;5050430;28;19925;-52
2021/09/28 02:08:09;;;;;;;;;;;;;;;10.07;96.48;102100.50;5050195;28;20354;-48
2021/09/28 02:10:36;;;;;;;;;;;;;;;10.09;96.86;102098.63;5052778;28;20019;-52
2021/09/28 02:13:03;;;;;;;;;;;;;;;10.03;96.76;102101.53;5066860;28;20354;-49
2021/09/28 02:15:29;;;;;;;;;;;;;;;9.95;96.41;102105.38;5065432;28;19975;-49
2021/09/28 02:17:56;;;;;;;;;;;;;;;9.97;96.40;102100.88;5050167;28;19970;-48
2021/09/28 02:20:22;;;;;;;;;;;;;;;9.94;96.51;102103.66;5050130;28;20289;-48
2021/09/28 02:22:49;;;;;;;;;;;;;;;9.93;98.28;102111.59;5049686;28;19959;-48
2021/09/28 02:25:18;;;;;;;;;;;;;;;9.91;98.54;102111.66;5049952;28;19978;-48
2021/09/28 02:27:45;;;;;;;;;;;;;;;9.90;97.05;102114.38;5048161;28;19932;-48
2021/09/28 02:30:12;;;;;;;;;;;;;;;9.88;97.56;102114.41;5050066;28;20039;-50
2021/09/28 02:32:39;;;;;;;;;;;;;;;9.90;98.12;102112.59;5050323;28;19932;-50
2021/09/28 02:35:06;;;;;;;;;;;;;;;9.90;97.55;102109.97;5052275;28;19932;-52
2021/09/28 02:37:32;;;;;;;;;;;;;;;9.84;97.52;102104.09;5051773;28;19951;-50
2021/09/28 02:40:00;;;;;;;;;;;;;;;9.91;97.08;102108.16;5049972;28;19932;-52
2021/09/28 02:42:27;;;;;;;;;;;;;;;9.80;98.02;102112.13;5047836;28;19978;-49
2021/09/28 02:44:55;;;;;;;;;;;;;;;9.86;97.29;102115.38;5051372;28;19929;-50
2021/09/28 02:47:22;;;;;;;;;;;;;;;9.81;97.12;102115.59;5049365;28;19998;-53
2021/09/28 02:49:49;;;;;;;;;;;;;;;9.82;96.60;102117.31;5049550;28;19925;-50
2021/09/28 02:52:16;;;;;;;;;;;;;;;9.79;96.46;102118.28;5064756;28;20027;-53
2021/09/28 02:54:42;;;;;;;;;;;;;;;9.77;96.70;102114.84;5050056;28;19928;-49
2021/09/28 02:57:09;;;;;;;;;;;;;;;9.70;96.68;102118.66;5047833;28;19986;-48
2021/09/28 02:59:36;;;;;;;;;;;;;;;9.77;96.69;102119.25;5047604;28;19978;-51
2021/09/28 03:02:03;;;;;;;;;;;;;;;9.74;96.42;102122.88;5049883;28;19975;-48
2021/09/28 03:04:30;;;;;;;;;;;;;;;9.62;96.56;102126.84;5050569;28;20439;-52
2021/09/28 03:06:57;;;;;;;;;;;;;;;9.72;96.42;102121.22;5052120;28;19925;-50
2021/09/28 03:09:23;;;;;;;;;;;;;;;9.72;96.14;102127.34;5050901;28;19931;-50
2021/09/28 03:11:50;;;;;;;;;;;;;;;9.65;96.72;102131.13;5048217;28;19928;-52
2021/09/28 03:14:17;;;;;;;;;;;;;;;9.66;96.67;102132.00;5048856;28;19978;-52
2021/09/28 03:16:43;;;;;;;;;;;;;;;9.67;96.56;102123.19;5050697;28;20403;-49
2021/09/28 03:19:10;;;;;;;;;;;;;;;9.63;96.70;102133.81;5051751;28;19928;-50
2021/09/28 03:21:37;;;;;;;;;;;;;;;9.63;96.37;102136.44;5049608;28;19968;-48
2021/09/28 03:24:03;;;;;;;;;;;;;;;9.61;96.54;102135.66;5049847;28;19933;-50
2021/09/28 03:26:30;;;;;;;;;;;;;;;9.54;96.07;102128.94;5051466;28;20383;-49
2021/09/28 03:28:56;;;;;;;;;;;;;;;9.48;96.47;102134.44;5055743;28;19932;-53
2021/09/28 03:31:23;;;;;;;;;;;;;;;9.51;96.93;102136.09;5053426;28;19972;-49
2021/09/28 03:33:50;;;;;;;;;;;;;;;9.50;96.25;102135.22;5053101;28;19928;-52
2021/09/28 03:36:17;;;;;;;;;;;;;;;9.52;96.44;102138.66;5053482;28;19959;-50
2021/09/28 03:38:43;;;;;;;;;;;;;;;9.51;96.81;102136.94;5052660;28;19928;-53
2021/09/28 03:41:10;;;;;;;;;;;;;;;9.46;96.63;102141.50;5051869;28;20649;-50
2021/09/28 03:43:37;;;;;;;;;;;;;;;9.45;96.01;102143.28;5050584;28;19960;-41
2021/09/28 03:46:03;;;;;;;;;;;;;;;9.36;97.63;102148.91;5067734;28;19932;-41
2021/09/28 03:48:30;;;;;;;;;;;;;;;9.30;97.27;102150.00;5052023;28;19960;-42
2021/09/28 03:50:57;;;;;;;;;;;;;;;9.24;97.71;102145.00;5052457;28;19987;-42
2021/09/28 03:53:24;;;;;;;;;;;;;;;9.25;98.11;102144.06;5052544;28;19924;-40
2021/09/28 03:55:50;;;;;;;;;;;;;;;9.27;98.08;102147.50;5052549;28;19967;-40
2021/09/28 03:58:17;;;;;;;;;;;;;;;9.20;98.25;102145.16;5050761;28;19928;-42
2021/09/28 04:00:44;;;;;;;;;;;;;;;9.27;97.85;102150.13;5067804;28;20296;-41
2021/09/28 04:03:10;;;;;;;;;;;;;;;9.28;97.39;102153.59;5052513;28;19964;-42
2021/09/28 04:05:37;;;;;;;;;;;;;;;9.34;97.62;102161.25;5052971;28;20384;-41
2021/09/28 04:08:04;;;;;;;;;;;;;;;9.26;97.58;102160.69;5052005;28;20011;-41
2021/09/28 04:10:34;;;;;;;;;;;;;;;9.29;98.06;102166.66;5052355;28;20421;-41
2021/09/28 04:13:05;;;;;;;;;;;;;;;9.25;97.18;102166.84;5065118;28;19925;-40
2021/09/28 04:15:39;;;;;;;;;;;;;;;9.25;97.76;102169.47;5052086;28;20010;-40
2021/09/28 04:18:06;;;;;;;;;;;;;;;9.18;97.51;102166.22;5052271;28;20392;-41
2021/09/28 04:20:33;;;;;;;;;;;;;;;9.20;97.45;102167.00;5054557;28;19971;-40
2021/09/28 04:23:00;;;;;;;;;;;;;;;9.23;97.54;102169.53;5052466;28;19925;-40
2021/09/28 04:25:27;;;;;;;;;;;;;;;9.16;97.46;102173.28;5066669;28;19925;-44
2021/09/28 04:27:53;;;;;;;;;;;;;;;9.18;97.83;102174.09;5047952;28;19951;-45
2021/09/28 04:30:20;;;;;;;;;;;;;;;9.17;97.21;102171.53;5067197;28;19925;-42
2021/09/28 04:32:47;;;;;;;;;;;;;;;9.17;97.20;102176.78;5067182;28;19971;-42
2021/09/28 04:35:13;;;;;;;;;;;;;;;9.25;96.41;102174.72;5053246;28;19940;-42
2021/09/28 04:37:40;;;;;;;;;;;;;;;9.16;95.85;102173.28;5054197;28;19925;-41
2021/09/28 04:40:07;;;;;;;;;;;;;;;9.16;96.69;102175.91;5052103;28;19925;-41
2021/09/28 04:42:34;;;;;;;;;;;;;;;9.08;96.57;102180.59;5049660;28;20437;-41
2021/09/28 04:45:00;;;;;;;;;;;;;;;9.04;96.96;102173.75;5051368;28;19936;-41
2021/09/28 04:47:27;;;;;;;;;;;;;;;9.02;97.62;102178.22;5051881;28;19928;-40
2021/09/28 04:49:53;;;;;;;;;;;;;;;8.96;98.01;102176.69;5052847;28;19983;-51
2021/09/28 04:52:20;;;;;;;;;;;;;;;8.94;97.64;102176.75;5051447;28;19932;-52
2021/09/28 04:54:47;;;;;;;;;;;;;;;9.01;96.99;102181.75;5052169;28;19929;-49
2021/09/28 04:57:13;;;;;;;;;;;;;;;9.03;96.53;102177.31;5050552;28;20316;-51
2021/09/28 04:59:40;;;;;;;;;;;;;;;9.02;96.81;102171.19;5053253;28;19928;-52
2021/09/28 05:02:06;;;;;;;;;;;;;;;9.07;96.79;102181.53;5053020;28;19925;-50
2021/09/28 05:04:34;;;;;;;;;;;;;;;9.01;96.61;102181.75;5051490;28;19994;-52
2021/09/28 05:07:00;;;;;;;;;;;;;;;8.99;96.88;102175.72;5053385;28;20269;-48
2021/09/28 05:09:27;;;;;;;;;;;;;;;8.91;97.43;102182.09;5051366;28;19929;-51
2021/09/28 05:11:56;;;;;;;;;;;;;;;8.91;97.42;102189.97;5050071;28;19974;-47
2021/09/28 05:14:22;;;;;;;;;;;;;;;8.87;97.41;102184.91;5051152;28;19925;-49
2021/09/28 05:16:49;;;;;;;;;;;;;;;8.83;98.09;102192.00;5050132;28;19971;-52
2021/09/28 05:19:15;;;;;;;;;;;;;;;8.83;98.21;102194.63;5051203;28;19925;-51
2021/09/28 05:21:42;;;;;;;;;;;;;;;8.80;97.32;102194.75;5050947;28;20334;-41
2021/09/28 05:24:09;;;;;;;;;;;;;;;8.88;96.92;102200.56;5033082;28;19994;-41
2021/09/28 05:26:36;;;;;;;;;;;;;;;8.85;97.35;102199.81;5048820;28;19924;-42
2021/09/28 05:29:02;;;;;;;;;;;;;;;8.82;97.08;102206.06;5049453;28;19955;-51
2021/09/28 05:31:29;;;;;;;;;;;;;;;8.79;97.16;102204.41;5049512;28;19932;-52
2021/09/28 05:33:56;;;;;;;;;;;;;;;8.81;97.15;102204.34;5049832;28;20392;-50
2021/09/28 05:36:23;;;;;;;;;;;;;;;8.81;96.90;102204.34;5065933;28;20346;-51
2021/09/28 05:38:49;;;;;;;;;;;;;;;8.87;96.68;102209.34;5050854;28;19948;-41
2021/09/28 05:41:16;;;;;;;;;;;;;;;8.78;96.77;102210.56;5049338;28;19933;-42
2021/09/28 05:43:43;;;;;;;;;;;;;;;8.79;97.42;102208.75;5049314;28;19928;-41
2021/09/28 05:46:11;;;;;;;;;;;;;;;8.80;97.79;102207.88;5068128;28;19924;-41
2021/09/28 05:48:37;;;;;;;;;;;;;;;8.78;97.31;102212.28;5068698;28;19937;-41
2021/09/28 05:51:11;;;;;;;;;;;;;;;8.77;97.95;102215.84;5050317;28;19935;-41
2021/09/28 05:53:38;;;;;;;;;;;;;;;8.79;98.11;102214.88;5049170;28;20356;-42
2021/09/28 05:56:04;;;;;;;;;;;;;;;8.81;97.54;102212.22;5051576;28;20024;-41
2021/09/28 05:58:31;;;;;;;;;;;;;;;8.79;97.44;102216.63;5051045;28;20319;-40
2021/09/28 06:00:57;;;;;;;;;;;;;;;8.83;97.38;102214.78;5050626;28;19929;-41
2021/09/28 06:03:24;;;;;;;;;;;;;;;8.73;98.52;102215.09;5050093;28;19974;-41
2021/09/28 06:05:51;;;;;;;;;;;;;;;8.76;98.61;102222.00;5050003;28;20264;-44
2021/09/28 06:08:17;;;;;;;;;;;;;;;8.77;98.65;102221.94;5065013;28;19974;-41
2021/09/28 06:10:44;;;;;;;;;;;;;;;8.72;99.11;102218.63;5050366;28;19932;-41
2021/09/28 06:13:11;;;;;;;;;;;;;;;8.85;99.53;102220.81;5050379;28;19929;-41
2021/09/28 06:15:38;;;;;;;;;;;;;;;8.82;99.98;102213.06;5049392;28;19925;-41
2021/09/28 06:18:05;;;;;;;;;;;;;;;8.80;100.00;102227.06;5050077;28;19932;-42
2021/09/28 06:20:31;;;;;;;;;;;;;;;8.77;100.00;102216.69;5050116;28;19978;-41
2021/09/28 06:22:58;;;;;;;;;;;;;;;8.83;100.00;102226.09;5049702;28;19925;-43
2021/09/28 06:25:25;;;;;;;;;;;;;;;8.86;100.00;102219.91;5050062;28;19994;-41
2021/09/28 06:27:51;;;;;;;;;;;;;;;8.86;100.00;102220.78;5050132;28;19924;-41
2021/09/28 06:30:18;;;;;;;;;;;;;;;8.89;100.00;102222.41;5052746;28;19970;-42
2021/09/28 06:32:45;;;;;;;;;;;;;;;8.98;100.00;102236.97;5049186;28;19945;-43
2021/09/28 06:35:11;;;;;;;;;;;;;;;9.10;100.00;102233.91;5065696;28;19972;-42
2021/09/28 06:37:38;;;;;;;;;;;;;;;9.14;100.00;102240.75;5052837;28;19925;-47
2021/09/28 06:40:05;;;;;;;;;;;;;;;9.20;100.00;102237.88;5067994;28;20391;-51
2021/09/28 06:42:32;;;;;;;;;;;;;;;9.24;100.00;102241.25;5049917;28;20395;-51
2021/09/28 06:44:58;;;;;;;;;;;;;;;9.29;100.00;102234.91;5049559;28;20354;-50
2021/09/28 06:47:25;;;;;;;;;;;;;;;9.32;100.00;102235.72;5049407;28;19925;-50
2021/09/28 06:49:52;;;;;;;;;;;;;;;9.34;100.00;102239.13;5065546;28;19932;-50
2021/09/28 06:52:18;;;;;;;;;;;;;;;9.40;100.00;102233.66;5050540;28;19978;-51
2021/09/28 06:54:45;;;;;;;;;;;;;;;9.54;100.00;102236.59;5066704;28;20334;-54
2021/09/28 06:57:11;;;;;;;;;;;;;;;9.62;100.00;102233.69;5049104;28;19943;-53
2021/09/28 06:59:38;;;;;;;;;;;;;;;9.74;100.00;102250.75;5050580;28;19929;-53
2021/09/28 07:02:05;;;;;;;;;;;;;;;9.87;100.00;102241.47;5052991;28;19928;-49
2021/09/28 07:04:31;;;;;;;;;;;;;;;9.96;100.00;102240.25;5053680;28;19944;-52
2021/09/28 07:07:01;;;;;;;;;;;;;;;10.19;100.00;102241.09;5052211;28;19978;-50
2021/09/28 07:09:28;;;;;;;;;;;;;;;10.34;100.00;102232.56;5068732;28;20504;-49
2021/09/28 07:11:55;;;;;;;;;;;;;;;10.47;100.00;102238.16;5052422;28;19932;-50
2021/09/28 07:14:21;;;;;;;;;;;;;;;10.60;100.00;102242.00;5053380;28;19925;-50
2021/09/28 07:16:48;;;;;;;;;;;;;;;10.80;100.00;102235.88;5053906;28;19955;-49
2021/09/28 07:19:14;;;;;;;;;;;;;;;10.98;100.00;102239.44;5053734;28;20326;-55
2021/09/28 07:21:41;;;;;;;;;;;;;;;11.15;100.00;102248.38;5053528;28;19970;-52
2021/09/28 07:24:09;;;;;;;;;;;;;;;11.23;100.00;102255.94;5069146;28;19924;-51
2021/09/28 07:26:35;;;;;;;;;;;;;;;11.47;100.00;102252.16;5070833;28;20384;-52
2021/09/28 07:29:02;;;;;;;;;;;;;;;11.63;100.00;102259.34;5055864;28;19975;-42
2021/09/28 07:31:29;;;;;;;;;;;;;;;11.72;100.00;102253.63;5056053;28;20027;-44
2021/09/28 07:33:56;;;;;;;;;;;;;;;12.04;98.01;102258.31;5054590;28;19936;-42
2021/09/28 07:36:23;;;;;;;;;;;;;;;12.15;97.97;102264.78;5051710;28;19983;-42
2021/09/28 07:38:49;;;;;;;;;;;;;;;12.55;95.82;102261.09;5054303;28;19929;-43
2021/09/28 07:41:16;;;;;;;;;;;;;;;12.69;95.04;102255.94;5055541;28;20379;-43
2021/09/28 07:43:45;;;;;;;;;;;;;;;12.67;93.70;102257.81;5052014;28;19925;-44
2021/09/28 07:46:11;;;;;;;;;;;;;;;12.85;93.88;102256.84;5052371;28;19956;-41
2021/09/28 07:48:38;;;;;;;;;;;;;;;13.14;92.45;102256.22;5052587;28;19948;-42
2021/09/28 07:51:04;;;;;;;;;;;;;;;13.27;92.06;102259.94;5052659;28;20050;-41
2021/09/28 07:53:31;;;;;;;;;;;;;;;13.19;91.21;102259.50;5052268;28;20641;-43
2021/09/28 07:55:58;;;;;;;;;;;;;;;13.51;90.40;102259.53;5051860;28;19971;-43
2021/09/28 07:58:24;;;;;;;;;;;;;;;13.49;88.92;102261.44;5066999;28;19925;-41
2021/09/28 08:00:53;;;;;;;;;;;;;;;13.87;88.73;102263.72;5055152;28;20027;-45
2021/09/28 08:03:25;;;;;;;;;;;;;;;14.12;88.15;102265.81;5053792;28;19979;-43
2021/09/28 08:05:52;;;;;;;;;;;;;;;14.29;86.91;102264.84;5052763;28;20035;-40
2021/09/28 08:08:18;;;;;;;;;;;;;;;14.74;86.73;102269.31;5051687;28;19979;-42
2021/09/28 08:10:45;;;;;;;;;;;;;;;14.78;83.87;102270.84;5051867;28;19928;-46
2021/09/28 08:13:11;;;;;;;;;;;;;;;14.74;84.68;102277.25;5049181;28;19925;-51
2021/09/28 08:15:38;;;;;;;;;;;;;;;14.85;81.13;102272.19;5053304;28;19951;-52
2021/09/28 08:18:05;;;;;;;;;;;;;;;15.12;83.03;102274.06;5053515;28;19932;-53
2021/09/28 08:20:31;;;;;;;;;;;;;;;15.12;79.71;102268.78;5052109;28;19947;-54
2021/09/28 08:22:59;;;;;;;;;;;;;;;15.17;80.11;102266.69;5052096;28;19971;-51
2021/09/28 08:25:47;;;;;;;;;;;;;;;15.31;80.39;102272.00;5064550;28;20044;-52
2021/09/28 08:31:02;;;;;;;;;;;;;;;15.47;79.32;102271.00;5050856;28;19935;-52
2021/09/28 08:33:35;;;;;;;;;;;;;;;15.70;77.92;102267.72;5051058;28;19929;-52
2021/09/28 08:36:02;;;;;;;;;;;;;;;15.95;78.81;102270.63;5050509;28;19959;-55
2021/09/28 08:38:28;;;;;;;;;;;;;;;15.99;75.98;102265.03;5050554;28;19925;-51
2021/09/28 08:40:59;;;;;;;;;;;;;;;15.97;76.51;102258.97;5050376;28;19933;-52
2021/09/28 08:43:25;;;;;;;;;;;;;;;16.12;76.58;102269.53;5048155;28;19975;-53
2021/09/28 08:45:53;;;;;;;;;;;;;;;16.36;74.76;102261.72;5050774;28;19975;-52
2021/09/28 08:48:19;;;;;;;;;;;;;;;16.59;74.61;102260.16;5050875;28;19924;-51
2021/09/28 08:50:47;;;;;;;;;;;;;;;16.59;73.51;102260.16;5051161;28;19924;-52
2021/09/28 08:53:14;;;;;;;;;;;;;;;16.85;73.83;102253.06;5051594;28;19928;-53
2021/09/28 08:55:41;;;;;;;;;;;;;;;16.79;72.86;102256.13;5051951;28;19936;-51
2021/09/28 08:58:21;;;;;;;;;;;;;;;16.90;74.76;102261.56;5048897;28;19925;-55
2021/09/28 09:00:48;;;;;;;;;;;;;;;17.22;72.78;102254.97;5050239;28;19928;-52
2021/09/28 09:03:27;;;;;;;;;;;;;;;17.23;71.39;102254.00;5066861;28;20475;-51
2021/09/28 09:05:56;;;;;;;;;;;;;;;17.20;71.25;102254.22;5053822;28;19931;-52
2021/09/28 09:08:23;;;;;;;;;;;;;;;17.37;71.37;102264.50;5053818;28;19925;-51
2021/09/28 09:10:58;;;;;;;;;;;;;;;17.57;70.11;102252.44;5050097;28;19928;-55
2021/09/28 09:13:38;;;;;;;;;;;;;;;17.86;71.12;102256.56;5048720;28;20403;-53
2021/09/28 09:16:05;;;;;;;;;;;;;;;17.89;69.22;102251.88;5051350;28;19924;-53
2021/09/28 09:18:33;;;;;;;;;;;;;;;17.82;68.10;102247.97;5052786;28;20126;-50
2021/09/28 09:21:01;;;;;;;;;;;;;;;17.88;68.50;102254.66;5053597;28;19924;-49
2021/09/28 09:23:28;;;;;;;;;;;;;;;17.97;67.74;102255.78;5053529;28;19925;-53
2021/09/28 09:26:04;;;;;;;;;;;;;;;17.94;68.16;102253.38;5068207;28;19928;-51
2021/09/28 09:28:32;;;;;;;;;;;;;;;17.71;69.52;102248.75;5052130;28;20001;-50
2021/09/28 09:31:09;;;;;;;;;;;;;;;18.19;68.01;102245.25;5065093;28;20485;-52
2021/09/28 09:33:37;;;;;;;;;;;;;;;18.51;67.82;102241.09;5050153;28;19967;-53
2021/09/28 09:36:04;;;;;;;;;;;;;;;18.26;66.14;102242.97;5048932;28;19994;-52
2021/09/28 09:38:30;;;;;;;;;;;;;;;18.59;66.28;102238.69;5049060;28;19947;-51
2021/09/28 09:41:03;;;;;;;;;;;;;;;18.96;65.34;102235.81;5047944;28;20364;-53
2021/09/28 09:43:30;;;;;;;;;;;;;;;18.98;65.20;102239.22;5063627;28;20331;-53
2021/09/28 09:46:05;;;;;;;;;;;;;;;18.88;64.52;102227.59;5047669;28;19928;-52
2021/09/28 09:48:34;;;;;;;;;;;;;;;19.29;64.23;102233.25;5051865;28;19924;-51
2021/09/28 09:51:05;;;;;;;;;;;;;;;19.32;64.61;102233.88;5049788;28;20331;-53
2021/09/28 09:53:33;;;;;;;;;;;;;;;19.37;63.01;102228.16;5049059;28;19931;-54
2021/09/28 09:55:59;;;;;;;;;;;;;;;19.51;62.68;102221.69;5049193;28;20404;-51
2021/09/28 09:58:26;;;;;;;;;;;;;;;19.71;60.76;102225.41;5048550;28;19925;-52
2021/09/28 10:00:55;;;;;;;;;;;;;;;19.75;60.85;102217.00;5052212;28;19971;-52
2021/09/28 10:03:22;;;;;;;;;;;;;;;20.07;60.75;102213.50;5049605;28;20023;-52
2021/09/28 10:05:49;;;;;;;;;;;;;;;20.17;60.48;102226.09;5049759;28;19956;-55
2021/09/28 10:08:16;;;;;;;;;;;;;;;20.43;59.58;102208.66;5050511;28;20384;-50
2021/09/28 10:10:42;;;;;;;;;;;;;;;20.58;59.18;102209.19;5052797;28;19925;-50
2021/09/28 10:13:27;;;;;;;;;;;;;;;20.59;59.39;102205.53;5052252;28;20019;-50
2021/09/28 10:16:23;;;;;;;;;;;;;;;21.08;59.12;102216.47;5052037;28;19974;-54
2021/09/28 10:18:51;;;;;;;;;;;;;;;21.03;57.33;102201.81;5052325;28;19933;-53
2021/09/28 10:21:47;;;;;;;;;;;;;;;21.18;55.80;102204.94;5051507;28;19978;-52
2021/09/28 10:24:26;;;;;;;;;;;;;;;21.50;56.59;102206.53;5043827;28;19925;-55
2021/09/28 10:26:56;;;;;;;;;;;;;;;21.72;54.11;102200.97;5049317;28;20380;-53
2021/09/28 10:29:41;;;;;;;;;;;;;;;21.64;54.26;102200.81;5050458;28;19936;-54
2021/09/28 10:32:26;;;;;;;;;;;;;;;21.91;53.37;102196.56;5049126;28;19925;-54
2021/09/28 10:35:14;;;;;;;;;;;;;;;21.53;52.98;102193.78;5049166;28;19929;-53
2021/09/28 10:37:42;;;;;;;;;;;;;;;21.41;54.49;102190.34;5052371;28;19925;-53
2021/09/28 10:40:14;;;;;;;;;;;;;;;21.84;53.58;102182.94;5055352;28;20034;-53
2021/09/28 10:42:51;;;;;;;;;;;;;;;22.11;51.86;102179.53;5055557;28;19931;-52
2021/09/28 10:45:19;;;;;;;;;;;;;;;22.07;53.38;102179.94;5051206;28;19924;-51
2021/09/28 10:47:49;;;;;;;;;;;;;;;21.70;51.83;102173.47;5068979;28;19928;-52
2021/09/28 10:50:17;;;;;;;;;;;;;;;22.32;50.87;102177.63;5053253;28;19932;-54
2021/09/28 10:52:44;;;;;;;;;;;;;;;22.62;51.27;102179.25;5055542;28;19925;-49
2021/09/28 10:55:13;;;;;;;;;;;;;;;23.13;51.36;102177.03;5053474;28;19924;-51
2021/09/28 10:58:17;;;;;;;;;;;;;;;22.99;49.98;102170.31;5051517;28;19968;-54
2021/09/28 11:00:44;;;;;;;;;;;;;;;22.92;47.95;102174.63;5054319;28;20300;-54
2021/09/28 11:03:11;;;;;;;;;;;;;;;23.01;48.54;102159.44;5055395;28;19929;-53
2021/09/28 11:05:39;;;;;;;;;;;;;;;23.05;48.29;102168.88;5069077;28;19925;-53
2021/09/28 11:08:06;;;;;;;;;;;;;;;23.28;47.88;102163.97;5053361;28;19925;-53
2021/09/28 11:10:33;;;;;;;;;;;;;;;23.46;47.16;102167.50;5054104;28;19925;-55
2021/09/28 11:13:07;;;;;;;;;;;;;;;23.26;46.91;102157.88;5071364;28;19925;-51
2021/09/28 11:15:34;;;;;;;;;;;;;;;23.56;46.39;102150.44;5069555;28;19936;-51
2021/09/28 11:18:10;;;;;;;;;;;;;;;23.17;46.92;102156.13;5053737;28;20285;-46
2021/09/28 11:20:37;;;;;;;;;;;;;;;23.30;46.22;102151.22;5055281;28;19931;-46
2021/09/28 11:23:09;;;;;;;;;;;;;;;23.12;46.87;102152.06;5052765;28;19935;-43
2021/09/28 11:25:36;;;;;;;;;;;;;;;23.85;48.20;102144.00;5053240;28;20474;-46
2021/09/28 11:28:03;;;;;;;;;;;;;;;24.22;47.09;102132.19;5051524;28;20439;-45
2021/09/28 11:30:34;;;;;;;;;;;;;;;24.86;43.48;102132.66;5068050;28;19925;-44
2021/09/28 11:33:05;;;;;;;;;;;;;;;25.08;44.06;102135.75;5051868;28;20031;-48
2021/09/28 11:35:31;;;;;;;;;;;;;;;24.59;42.64;102122.94;5053913;28;19925;-46
2021/09/28 11:37:59;;;;;;;;;;;;;;;24.61;42.14;102120.91;5053357;28;19994;-44
2021/09/28 11:40:30;;;;;;;;;;;;;;;24.58;42.16;102113.19;5052609;28;19936;-43
2021/09/28 11:42:57;;;;;;;;;;;;;;;24.26;41.52;102112.03;5050990;28;19928;-46
2021/09/28 11:45:30;;;;;;;;;;;;;;;25.14;43.02;102111.69;5070006;28;19925;-42
2021/09/28 11:48:01;;;;;;;;;;;;;;;25.48;41.01;102110.75;5054261;28;20415;-44
2021/09/28 11:50:27;;;;;;;;;;;;;;;24.85;40.04;102104.06;5067351;28;20407;-43
2021/09/28 11:52:54;;;;;;;;;;;;;;;25.10;41.89;102104.97;5052283;28;19929;-45
2021/09/28 11:55:24;;;;;;;;;;;;;;;25.55;41.70;102104.66;5052654;28;19924;-43
2021/09/28 11:57:51;;;;;;;;;;;;;;;25.91;39.82;102105.13;5050571;28;19951;-48
2021/09/28 12:00:17;;;;;;;;;;;;;;;25.16;40.42;102105.31;5067804;28;19929;-43
2021/09/28 12:02:44;;;;;;;;;;;;;;;25.07;40.59;102104.44;5052696;28;19924;-44
2021/09/28 12:05:26;;;;;;;;;;;;;;;24.72;41.79;102107.22;5052461;28;19925;-49
2021/09/28 12:08:00;;;;;;;;;;;;;;;23.70;42.82;102106.94;5054062;28;19925;-43
2021/09/28 12:10:28;;;;;;;;;;;;;;;24.28;41.50;102094.75;5054857;28;19928;-45
2021/09/28 12:12:55;;;;;;;;;;;;;;;24.94;39.58;102083.41;5070310;28;20392;-42
2021/09/28 12:15:22;;;;;;;;;;;;;;;24.73;39.90;102087.41;5054880;28;19931;-43
2021/09/28 12:17:49;;;;;;;;;;;;;;;24.88;39.34;102084.94;5054948;28;19924;-43
2021/09/28 12:20:17;;;;;;;;;;;;;;;25.19;38.67;102080.75;5055036;28;19932;-41
2021/09/28 12:22:59;;;;;;;;;;;;;;;25.60;38.12;102080.78;5051948;28;19925;-54
2021/09/28 12:25:31;;;;;;;;;;;;;;;24.69;38.37;102083.34;5052051;28;19928;-43
2021/09/28 12:28:07;;;;;;;;;;;;;;;25.12;37.79;102076.03;5049852;28;19975;-42
2021/09/28 12:30:49;;;;;;;;;;;;;;;25.73;39.35;102070.31;5051851;28;19924;-43
2021/09/28 12:33:15;;;;;;;;;;;;;;;26.20;37.54;102071.41;5067192;28;19929;-42
2021/09/28 12:35:42;;;;;;;;;;;;;;;26.40;36.88;102069.13;5052433;28;19925;-42
2021/09/28 12:38:10;;;;;;;;;;;;;;;26.85;36.85;102069.44;5049990;28;19924;-43
2021/09/28 12:40:42;;;;;;;;;;;;;;;26.99;35.95;102060.53;5052013;28;19925;-44
2021/09/28 12:43:11;;;;;;;;;;;;;;;27.24;35.61;102054.13;5052443;28;19979;-42
2021/09/28 12:45:58;;;;;;;;;;;;;;;26.57;35.87;102060.97;5054283;28;19964;-43
2021/09/28 12:48:40;;;;;;;;;;;;;;;26.59;35.11;102056.25;5053071;28;19971;-43